sensor_id;sensor_type;location;lat;lon;timestamp;temperature;humidity
6752;DHT22;3413;47.680;9.166;2023-08-21T00:04:31;29.30;68.60
6752;DHT22;3413;47.680;9.166;2023-08-21T00:09:33;29.20;68.70
6752;DHT22;3413;47.680;9.166;2023-08-21T00:14:35;29.20;68.70
6752;DHT22;3413;47.680;9.166;2023-08-21T00:19:37;29.10;68.80
6752;DHT22;3413;47.680;9.166;2023-08-21T00:24:39;29.00;69.00
6752;DHT22;3413;47.680;9.166;2023-08-21T00:29:41;28.90;69.00
6752;DHT22;3413;47.680;9.166;2023-08-21T00:34:42;28.80;69.10
6752;DHT22;3413;47.680;9.166;2023-08-21T00:39:44;28.70;69.20
6752;DHT22;3413;47.680;9.166;2023-08-21T00:44:46;28.60;69.30
6752;DHT22;3413;47.680;9.166;2023-08-21T00:49:48;28.50;69.50
6752;DHT22;3413;47.680;9.166;2023-08-21T00:54:50;28.50;69.60
6752;DHT22;3413;47.680;9.166;2023-08-21T00:59:53;28.40;69.70
6752;DHT22;3413;47.680;9.166;2023-08-21T01:04:55;28.30;69.80
6752;DHT22;3413;47.680;9.166;2023-08-21T01:10:13;28.20;69.80
6752;DHT22;3413;47.680;9.166;2023-08-21T01:15:17;28.20;70.10
6752;DHT22;3413;47.680;9.166;2023-08-21T01:20:20;28.20;70.10
6752;DHT22;3413;47.680;9.166;2023-08-21T01:25:23;28.10;70.20
6752;DHT22;3413;47.680;9.166;2023-08-21T01:30:27;28.10;70.30
6752;DHT22;3413;47.680;9.166;2023-08-21T01:35:31;28.00;70.50
6752;DHT22;3413;47.680;9.166;2023-08-21T01:40:35;27.90;70.50
6752;DHT22;3413;47.680;9.166;2023-08-21T01:45:36;27.80;70.60
6752;DHT22;3413;47.680;9.166;2023-08-21T01:50:38;27.80;70.70
6752;DHT22;3413;47.680;9.166;2023-08-21T01:55:40;27.80;70.90
6752;DHT22;3413;47.680;9.166;2023-08-21T02:00:46;27.70;71.00
6752;DHT22;3413;47.680;9.166;2023-08-21T02:05:48;27.70;71.20
6752;DHT22;3413;47.680;9.166;2023-08-21T02:10:50;27.60;71.20
6752;DHT22;3413;47.680;9.166;2023-08-21T02:15:52;27.60;71.30
6752;DHT22;3413;47.680;9.166;2023-08-21T02:20:54;27.60;71.40
6752;DHT22;3413;47.680;9.166;2023-08-21T02:25:56;27.50;71.40
6752;DHT22;3413;47.680;9.166;2023-08-21T02:30:58;27.50;71.50
6752;DHT22;3413;47.680;9.166;2023-08-21T02:36:00;27.50;71.60
6752;DHT22;3413;47.680;9.166;2023-08-21T02:41:04;27.50;71.70
6752;DHT22;3413;47.680;9.166;2023-08-21T02:46:06;27.40;71.80
6752;DHT22;3413;47.680;9.166;2023-08-21T02:51:08;27.30;71.90
6752;DHT22;3413;47.680;9.166;2023-08-21T02:56:10;27.30;72.00
6752;DHT22;3413;47.680;9.166;2023-08-21T03:01:12;27.30;72.10
6752;DHT22;3413;47.680;9.166;2023-08-21T03:06:14;27.30;72.20
6752;DHT22;3413;47.680;9.166;2023-08-21T03:11:18;27.30;72.20
6752;DHT22;3413;47.680;9.166;2023-08-21T03:16:20;27.20;72.30
6752;DHT22;3413;47.680;9.166;2023-08-21T03:21:23;27.10;72.40
6752;DHT22;3413;47.680;9.166;2023-08-21T03:26:26;27.10;72.50
6752;DHT22;3413;47.680;9.166;2023-08-21T03:31:30;27.00;72.60
6752;DHT22;3413;47.680;9.166;2023-08-21T03:36:32;27.00;72.60
6752;DHT22;3413;47.680;9.166;2023-08-21T03:41:36;26.90;73.40
6752;DHT22;3413;47.680;9.166;2023-08-21T03:46:38;26.90;72.80
6752;DHT22;3413;47.680;9.166;2023-08-21T03:51:41;27.00;72.90
6752;DHT22;3413;47.680;9.166;2023-08-21T03:56:44;27.00;73.00
6752;DHT22;3413;47.680;9.166;2023-08-21T04:01:46;26.90;73.00
6752;DHT22;3413;47.680;9.166;2023-08-21T04:06:48;26.90;73.80
6752;DHT22;3413;47.680;9.166;2023-08-21T04:11:50;26.90;73.20
6752;DHT22;3413;47.680;9.166;2023-08-21T04:16:51;26.80;73.30
6752;DHT22;3413;47.680;9.166;2023-08-21T04:21:54;26.70;73.30
6752;DHT22;3413;47.680;9.166;2023-08-21T04:26:56;26.60;73.50
6752;DHT22;3413;47.680;9.166;2023-08-21T04:31:58;26.50;73.60
6752;DHT22;3413;47.680;9.166;2023-08-21T04:37:00;26.50;73.70
6752;DHT22;3413;47.680;9.166;2023-08-21T04:42:03;26.40;73.80
6752;DHT22;3413;47.680;9.166;2023-08-21T04:47:21;26.40;74.00
6752;DHT22;3413;47.680;9.166;2023-08-21T04:52:25;26.50;74.20
6752;DHT22;3413;47.680;9.166;2023-08-21T04:57:28;26.40;74.00
6752;DHT22;3413;47.680;9.166;2023-08-21T05:02:33;26.50;74.10
6752;DHT22;3413;47.680;9.166;2023-08-21T05:07:35;26.50;74.20
6752;DHT22;3413;47.680;9.166;2023-08-21T05:12:37;26.50;74.20
6752;DHT22;3413;47.680;9.166;2023-08-21T05:17:40;26.40;74.30
6752;DHT22;3413;47.680;9.166;2023-08-21T05:22:42;26.40;74.50
6752;DHT22;3413;47.680;9.166;2023-08-21T05:27:45;26.40;74.60
6752;DHT22;3413;47.680;9.166;2023-08-21T05:32:47;26.40;74.80
6752;DHT22;3413;47.680;9.166;2023-08-21T05:37:49;26.40;74.90
6752;DHT22;3413;47.680;9.166;2023-08-21T05:42:55;26.60;75.00
6752;DHT22;3413;47.680;9.166;2023-08-21T05:47:57;26.60;75.10
6752;DHT22;3413;47.680;9.166;2023-08-21T05:52:59;26.60;75.20
6752;DHT22;3413;47.680;9.166;2023-08-21T05:58:03;26.70;75.40
6752;DHT22;3413;47.680;9.166;2023-08-21T06:03:06;26.80;75.50
6752;DHT22;3413;47.680;9.166;2023-08-21T06:08:19;26.90;75.70
6752;DHT22;3413;47.680;9.166;2023-08-21T06:13:21;27.00;75.90
6752;DHT22;3413;47.680;9.166;2023-08-21T06:18:26;27.10;76.00
6752;DHT22;3413;47.680;9.166;2023-08-21T06:23:28;27.10;76.20
6752;DHT22;3413;47.680;9.166;2023-08-21T06:28:30;27.20;76.40
6752;DHT22;3413;47.680;9.166;2023-08-21T06:33:32;27.30;76.20
6752;DHT22;3413;47.680;9.166;2023-08-21T06:38:34;27.40;76.20
6752;DHT22;3413;47.680;9.166;2023-08-21T06:43:39;27.50;76.30
6752;DHT22;3413;47.680;9.166;2023-08-21T06:48:46;27.60;76.50
6752;DHT22;3413;47.680;9.166;2023-08-21T06:53:48;27.70;76.50
6752;DHT22;3413;47.680;9.166;2023-08-21T06:58:50;27.80;76.80
6752;DHT22;3413;47.680;9.166;2023-08-21T07:03:52;27.80;76.90
6752;DHT22;3413;47.680;9.166;2023-08-21T07:08:54;27.90;77.80
6752;DHT22;3413;47.680;9.166;2023-08-21T07:13:56;28.00;77.20
6752;DHT22;3413;47.680;9.166;2023-08-21T07:18:59;28.00;77.40
6752;DHT22;3413;47.680;9.166;2023-08-21T07:24:02;28.10;77.40
6752;DHT22;3413;47.680;9.166;2023-08-21T07:29:05;28.20;77.40
6752;DHT22;3413;47.680;9.166;2023-08-21T07:34:07;28.30;77.50
6752;DHT22;3413;47.680;9.166;2023-08-21T07:39:10;28.50;77.70
6752;DHT22;3413;47.680;9.166;2023-08-21T07:44:11;28.60;77.80
6752;DHT22;3413;47.680;9.166;2023-08-21T07:49:13;28.80;78.20
6752;DHT22;3413;47.680;9.166;2023-08-21T07:54:15;28.90;78.00
6752;DHT22;3413;47.680;9.166;2023-08-21T07:59:17;29.10;78.10
6752;DHT22;3413;47.680;9.166;2023-08-21T08:04:21;29.30;78.30
6752;DHT22;3413;47.680;9.166;2023-08-21T08:09:23;29.50;78.40
6752;DHT22;3413;47.680;9.166;2023-08-21T08:14:26;29.90;78.80
6752;DHT22;3413;47.680;9.166;2023-08-21T08:19:28;30.50;78.00
6752;DHT22;3413;47.680;9.166;2023-08-21T08:24:30;30.80;77.40
6752;DHT22;3413;47.680;9.166;2023-08-21T08:29:32;31.00;77.30
6752;DHT22;3413;47.680;9.166;2023-08-21T08:34:34;31.10;77.50
6752;DHT22;3413;47.680;9.166;2023-08-21T08:39:36;31.10;77.60
6752;DHT22;3413;47.680;9.166;2023-08-21T08:44:38;31.20;77.70
6752;DHT22;3413;47.680;9.166;2023-08-21T08:49:42;31.30;77.70
6752;DHT22;3413;47.680;9.166;2023-08-21T08:54:44;31.40;77.70
6752;DHT22;3413;47.680;9.166;2023-08-21T08:59:47;31.60;77.90
6752;DHT22;3413;47.680;9.166;2023-08-21T09:04:49;31.70;77.80
6752;DHT22;3413;47.680;9.166;2023-08-21T09:09:51;32.00;77.90
6752;DHT22;3413;47.680;9.166;2023-08-21T09:14:55;32.20;78.00
6752;DHT22;3413;47.680;9.166;2023-08-21T09:20:06;32.50;78.10
6752;DHT22;3413;47.680;9.166;2023-08-21T09:25:09;32.60;77.90
6752;DHT22;3413;47.680;9.166;2023-08-21T09:30:12;32.90;77.70
6752;DHT22;3413;47.680;9.166;2023-08-21T09:35:18;33.00;77.60
6752;DHT22;3413;47.680;9.166;2023-08-21T09:40:21;33.00;77.40
6752;DHT22;3413;47.680;9.166;2023-08-21T09:45:24;32.90;77.50
6752;DHT22;3413;47.680;9.166;2023-08-21T09:50:29;33.00;77.70
6752;DHT22;3413;47.680;9.166;2023-08-21T09:55:32;33.10;77.40
6752;DHT22;3413;47.680;9.166;2023-08-21T10:00:37;33.00;77.50
6752;DHT22;3413;47.680;9.166;2023-08-21T10:05:39;33.20;77.60
6752;DHT22;3413;47.680;9.166;2023-08-21T10:10:41;33.40;77.50
6752;DHT22;3413;47.680;9.166;2023-08-21T10:15:44;33.80;77.50
6752;DHT22;3413;47.680;9.166;2023-08-21T10:20:51;33.80;77.30
6752;DHT22;3413;47.680;9.166;2023-08-21T10:25:58;33.90;77.50
6752;DHT22;3413;47.680;9.166;2023-08-21T10:41:53;34.30;77.30
6752;DHT22;3413;47.680;9.166;2023-08-21T10:57:30;34.70;77.10
6752;DHT22;3413;47.680;9.166;2023-08-21T11:02:33;34.60;77.10
6752;DHT22;3413;47.680;9.166;2023-08-21T11:07:40;34.60;77.10
6752;DHT22;3413;47.680;9.166;2023-08-21T11:12:56;34.90;77.10
6752;DHT22;3413;47.680;9.166;2023-08-21T11:18:00;35.20;77.00
6752;DHT22;3413;47.680;9.166;2023-08-21T11:23:04;35.20;76.80
6752;DHT22;3413;47.680;9.166;2023-08-21T11:28:08;35.30;76.90
6752;DHT22;3413;47.680;9.166;2023-08-21T11:33:12;35.40;76.60
6752;DHT22;3413;47.680;9.166;2023-08-21T11:38:22;35.50;76.70
6752;DHT22;3413;47.680;9.166;2023-08-21T11:43:38;35.70;76.60
6752;DHT22;3413;47.680;9.166;2023-08-21T11:48:41;36.10;76.50
6752;DHT22;3413;47.680;9.166;2023-08-21T11:53:44;36.20;76.40
6752;DHT22;3413;47.680;9.166;2023-08-21T11:58:48;36.20;76.10
6752;DHT22;3413;47.680;9.166;2023-08-21T12:03:52;36.30;76.00
6752;DHT22;3413;47.680;9.166;2023-08-21T12:08:58;36.30;75.90
6752;DHT22;3413;47.680;9.166;2023-08-21T12:14:00;36.40;75.70
6752;DHT22;3413;47.680;9.166;2023-08-21T12:19:02;36.60;75.60
6752;DHT22;3413;47.680;9.166;2023-08-21T12:24:05;36.70;75.30
6752;DHT22;3413;47.680;9.166;2023-08-21T12:29:08;36.70;75.30
6752;DHT22;3413;47.680;9.166;2023-08-21T12:34:10;36.90;74.90
6752;DHT22;3413;47.680;9.166;2023-08-21T12:39:12;37.10;74.80
6752;DHT22;3413;47.680;9.166;2023-08-21T12:44:14;37.30;74.60
6752;DHT22;3413;47.680;9.166;2023-08-21T12:49:16;37.60;74.20
6752;DHT22;3413;47.680;9.166;2023-08-21T12:54:18;37.80;74.10
6752;DHT22;3413;47.680;9.166;2023-08-21T12:59:20;37.90;74.00
6752;DHT22;3413;47.680;9.166;2023-08-21T13:04:22;38.10;73.80
6752;DHT22;3413;47.680;9.166;2023-08-21T13:09:24;38.30;73.50
6752;DHT22;3413;47.680;9.166;2023-08-21T13:14:27;38.50;73.40
6752;DHT22;3413;47.680;9.166;2023-08-21T13:19:33;38.60;73.40
6752;DHT22;3413;47.680;9.166;2023-08-21T13:24:35;38.80;73.40
6752;DHT22;3413;47.680;9.166;2023-08-21T13:29:37;38.90;73.30
6752;DHT22;3413;47.680;9.166;2023-08-21T13:34:39;39.10;73.10
6752;DHT22;3413;47.680;9.166;2023-08-21T13:39:41;39.10;72.90
6752;DHT22;3413;47.680;9.166;2023-08-21T13:44:43;39.20;72.60
6752;DHT22;3413;47.680;9.166;2023-08-21T13:49:46;39.10;72.40
6752;DHT22;3413;47.680;9.166;2023-08-21T13:54:48;38.80;71.90
6752;DHT22;3413;47.680;9.166;2023-08-21T13:59:50;38.50;71.80
6752;DHT22;3413;47.680;9.166;2023-08-21T14:04:52;38.30;71.80
6752;DHT22;3413;47.680;9.166;2023-08-21T14:09:54;38.40;71.50
6752;DHT22;3413;47.680;9.166;2023-08-21T14:14:56;38.40;71.30
6752;DHT22;3413;47.680;9.166;2023-08-21T14:19:58;38.30;71.00
6752;DHT22;3413;47.680;9.166;2023-08-21T14:24:59;38.30;71.00
6752;DHT22;3413;47.680;9.166;2023-08-21T14:30:02;38.30;71.00
6752;DHT22;3413;47.680;9.166;2023-08-21T14:35:06;38.40;70.70
6752;DHT22;3413;47.680;9.166;2023-08-21T14:40:11;38.20;70.50
6752;DHT22;3413;47.680;9.166;2023-08-21T14:45:13;38.40;70.50
6752;DHT22;3413;47.680;9.166;2023-08-21T14:50:15;38.60;70.20
6752;DHT22;3413;47.680;9.166;2023-08-21T14:55:17;38.60;70.00
6752;DHT22;3413;47.680;9.166;2023-08-21T15:00:19;38.60;69.80
6752;DHT22;3413;47.680;9.166;2023-08-21T15:05:21;38.60;69.60
6752;DHT22;3413;47.680;9.166;2023-08-21T15:10:23;38.60;69.40
6752;DHT22;3413;47.680;9.166;2023-08-21T15:15:25;38.60;69.20
6752;DHT22;3413;47.680;9.166;2023-08-21T15:20:27;38.50;69.70
6752;DHT22;3413;47.680;9.166;2023-08-21T15:25:29;38.60;68.70
6752;DHT22;3413;47.680;9.166;2023-08-21T15:30:31;38.60;68.40
6752;DHT22;3413;47.680;9.166;2023-08-21T15:35:33;38.50;68.20
6752;DHT22;3413;47.680;9.166;2023-08-21T15:40:35;38.50;68.20
6752;DHT22;3413;47.680;9.166;2023-08-21T15:45:37;38.60;68.30
6752;DHT22;3413;47.680;9.166;2023-08-21T15:50:39;38.80;68.00
6752;DHT22;3413;47.680;9.166;2023-08-21T15:55:41;38.80;67.60
6752;DHT22;3413;47.680;9.166;2023-08-21T16:00:43;38.70;67.60
6752;DHT22;3413;47.680;9.166;2023-08-21T16:05:45;38.80;67.30
6752;DHT22;3413;47.680;9.166;2023-08-21T16:10:47;38.70;66.80
6752;DHT22;3413;47.680;9.166;2023-08-21T16:15:50;38.50;66.80
6752;DHT22;3413;47.680;9.166;2023-08-21T16:20:52;38.40;66.80
6752;DHT22;3413;47.680;9.166;2023-08-21T16:25:54;38.50;66.70
6752;DHT22;3413;47.680;9.166;2023-08-21T16:30:56;38.50;66.40
6752;DHT22;3413;47.680;9.166;2023-08-21T16:35:58;38.40;66.30
6752;DHT22;3413;47.680;9.166;2023-08-21T16:41:00;38.30;66.30
6752;DHT22;3413;47.680;9.166;2023-08-21T16:46:05;38.30;66.20
6752;DHT22;3413;47.680;9.166;2023-08-21T16:51:07;38.40;66.10
6752;DHT22;3413;47.680;9.166;2023-08-21T16:56:09;38.40;66.00
6752;DHT22;3413;47.680;9.166;2023-08-21T17:01:10;38.30;65.80
6752;DHT22;3413;47.680;9.166;2023-08-21T17:06:12;38.40;65.70
6752;DHT22;3413;47.680;9.166;2023-08-21T17:11:16;38.30;65.50
6752;DHT22;3413;47.680;9.166;2023-08-21T17:16:18;38.30;65.30
6752;DHT22;3413;47.680;9.166;2023-08-21T17:21:20;38.40;65.20
6752;DHT22;3413;47.680;9.166;2023-08-21T17:26:22;38.40;65.00
6752;DHT22;3413;47.680;9.166;2023-08-21T17:31:24;38.30;64.80
6752;DHT22;3413;47.680;9.166;2023-08-21T17:36:25;38.20;64.80
6752;DHT22;3413;47.680;9.166;2023-08-21T17:41:27;38.10;64.70
6752;DHT22;3413;47.680;9.166;2023-08-21T17:46:30;38.00;64.70
6752;DHT22;3413;47.680;9.166;2023-08-21T17:51:32;37.90;64.80
6752;DHT22;3413;47.680;9.166;2023-08-21T17:56:34;37.80;64.70
6752;DHT22;3413;47.680;9.166;2023-08-21T18:01:36;37.60;64.90
6752;DHT22;3413;47.680;9.166;2023-08-21T18:06:39;37.40;64.70
6752;DHT22;3413;47.680;9.166;2023-08-21T18:11:40;37.30;64.70
6752;DHT22;3413;47.680;9.166;2023-08-21T18:16:42;37.10;64.60
6752;DHT22;3413;47.680;9.166;2023-08-21T18:21:47;37.00;64.50
6752;DHT22;3413;47.680;9.166;2023-08-21T18:26:50;36.90;64.60
6752;DHT22;3413;47.680;9.166;2023-08-21T18:31:53;36.80;64.40
6752;DHT22;3413;47.680;9.166;2023-08-21T18:36:59;36.70;64.40
6752;DHT22;3413;47.680;9.166;2023-08-21T18:42:01;36.50;64.40
6752;DHT22;3413;47.680;9.166;2023-08-21T18:47:03;36.40;64.40
6752;DHT22;3413;47.680;9.166;2023-08-21T18:52:05;36.30;64.40
6752;DHT22;3413;47.680;9.166;2023-08-21T18:57:07;36.10;64.40
6752;DHT22;3413;47.680;9.166;2023-08-21T19:02:09;36.10;64.40
6752;DHT22;3413;47.680;9.166;2023-08-21T19:07:11;36.00;64.40
6752;DHT22;3413;47.680;9.166;2023-08-21T19:12:14;35.80;64.40
6752;DHT22;3413;47.680;9.166;2023-08-21T19:17:16;35.40;64.40
6752;DHT22;3413;47.680;9.166;2023-08-21T19:22:18;35.10;64.60
6752;DHT22;3413;47.680;9.166;2023-08-21T19:27:20;34.80;64.60
6752;DHT22;3413;47.680;9.166;2023-08-21T19:32:22;34.60;64.50
6752;DHT22;3413;47.680;9.166;2023-08-21T19:37:24;34.50;64.50
6752;DHT22;3413;47.680;9.166;2023-08-21T19:42:27;34.40;65.20
6752;DHT22;3413;47.680;9.166;2023-08-21T19:47:29;34.20;65.20
6752;DHT22;3413;47.680;9.166;2023-08-21T19:52:31;34.10;64.50
6752;DHT22;3413;47.680;9.166;2023-08-21T19:57:33;34.10;64.40
6752;DHT22;3413;47.680;9.166;2023-08-21T20:02:35;34.00;64.30
6752;DHT22;3413;47.680;9.166;2023-08-21T20:07:38;33.80;64.40
6752;DHT22;3413;47.680;9.166;2023-08-21T20:12:42;33.60;64.50
6752;DHT22;3413;47.680;9.166;2023-08-21T20:17:44;33.50;64.40
6752;DHT22;3413;47.680;9.166;2023-08-21T20:22:46;33.40;64.50
6752;DHT22;3413;47.680;9.166;2023-08-21T20:27:48;33.30;64.50
6752;DHT22;3413;47.680;9.166;2023-08-21T20:32:51;33.00;64.60
6752;DHT22;3413;47.680;9.166;2023-08-21T20:37:53;32.90;64.60
6752;DHT22;3413;47.680;9.166;2023-08-21T20:42:55;32.70;64.60
6752;DHT22;3413;47.680;9.166;2023-08-21T20:47:57;32.50;64.50
6752;DHT22;3413;47.680;9.166;2023-08-21T20:52:59;32.40;64.60
6752;DHT22;3413;47.680;9.166;2023-08-21T20:58:01;32.20;64.60
6752;DHT22;3413;47.680;9.166;2023-08-21T21:03:04;32.10;64.60
6752;DHT22;3413;47.680;9.166;2023-08-21T21:08:06;31.90;65.40
6752;DHT22;3413;47.680;9.166;2023-08-21T21:13:08;31.80;64.80
6752;DHT22;3413;47.680;9.166;2023-08-21T21:18:10;31.70;64.80
6752;DHT22;3413;47.680;9.166;2023-08-21T21:23:12;31.80;64.80
6752;DHT22;3413;47.680;9.166;2023-08-21T21:28:14;31.70;64.80
6752;DHT22;3413;47.680;9.166;2023-08-21T21:33:16;31.60;64.90
6752;DHT22;3413;47.680;9.166;2023-08-21T21:38:18;31.50;65.00
6752;DHT22;3413;47.680;9.166;2023-08-21T21:43:22;31.40;65.10
6752;DHT22;3413;47.680;9.166;2023-08-21T21:48:29;31.30;65.10
6752;DHT22;3413;47.680;9.166;2023-08-21T21:53:31;31.30;65.20
6752;DHT22;3413;47.680;9.166;2023-08-21T21:58:33;31.20;65.40
6752;DHT22;3413;47.680;9.166;2023-08-21T22:03:36;31.20;65.40
6752;DHT22;3413;47.680;9.166;2023-08-21T22:08:40;31.20;66.10
6752;DHT22;3413;47.680;9.166;2023-08-21T22:13:43;31.10;65.50
6752;DHT22;3413;47.680;9.166;2023-08-21T22:18:45;31.00;65.50
6752;DHT22;3413;47.680;9.166;2023-08-21T22:23:47;30.90;65.70
6752;DHT22;3413;47.680;9.166;2023-08-21T22:28:49;30.70;65.70
6752;DHT22;3413;47.680;9.166;2023-08-21T22:33:51;30.60;66.00
6752;DHT22;3413;47.680;9.166;2023-08-21T22:38:53;30.50;66.10
6752;DHT22;3413;47.680;9.166;2023-08-21T22:43:54;30.30;66.20
6752;DHT22;3413;47.680;9.166;2023-08-21T22:48:56;30.20;66.50
6752;DHT22;3413;47.680;9.166;2023-08-21T22:53:58;30.10;66.70
6752;DHT22;3413;47.680;9.166;2023-08-21T22:59:00;30.00;66.80
6752;DHT22;3413;47.680;9.166;2023-08-21T23:04:02;30.00;67.10
6752;DHT22;3413;47.680;9.166;2023-08-21T23:09:04;30.00;67.20
6752;DHT22;3413;47.680;9.166;2023-08-21T23:14:07;30.00;67.20
6752;DHT22;3413;47.680;9.166;2023-08-21T23:19:14;30.10;67.20
6752;DHT22;3413;47.680;9.166;2023-08-21T23:24:17;30.10;67.40
6752;DHT22;3413;47.680;9.166;2023-08-21T23:29:19;29.90;67.30
6752;DHT22;3413;47.680;9.166;2023-08-21T23:34:21;29.90;67.40
6752;DHT22;3413;47.680;9.166;2023-08-21T23:39:23;29.90;67.50
6752;DHT22;3413;47.680;9.166;2023-08-21T23:44:24;29.90;67.60
6752;DHT22;3413;47.680;9.166;2023-08-21T23:49:27;29.80;67.80
6752;DHT22;3413;47.680;9.166;2023-08-21T23:54:29;29.70;67.80
6752;DHT22;3413;47.680;9.166;2023-08-21T23:59:31;29.60;67.80
